Ann Arbor Township, Michigan
Current Conditions -  °F | °C
As of 4:53 PM on Wednesday 26 Nov 2014 (Local Time) from KARB Reporting Station
Overcast Overcast  
Wind Chill: 27°   Ceiling: 2300
Heat Index: 32°   Visibility: 7mi
Dew Point: 24°   Wind: 5mph
Humidity: 73%   Direction: 10°N
Pressure: 30.1"   Gusts: NA
Location:  42.3281°N, 83.7037°W
Report Text: KARB 262153Z 01004KT 7SM BKN023 OVC028 00/M04 A3010 RMK AO2 SNB34E46 SLP202 P0000 T00001044
Loading
Personal Weather Stations






























Interactive Weather Map New forecast layout! Learn more

10-Day Weather Forecast

Advertisements
Track Severe Weather on mobile